Time;durP1;ratioP1;P1;durP2;ratioP2;P2;SDS_P1;SDS_P2;PMS_P1;PMS_P2;Temp;Humidity;BMP_temperature;BMP_pressure;BME280_temperature;BME280_humidity;BME280_pressure;Samples;Min_cycle;Max_cycle;Signal;HPM_P1;HPM_P2
2022/12/08 00:00:18;;;;;;;12.20;6.80;;;3.80;99.90;;;;;;2055744;28;20552;-68
2022/12/08 00:01:23;;;;;;;12.25;6.85;;;3.80;99.90;;;;;;2055548;28;20393;-69
2022/12/08 00:02:24;;;;;;;12.20;7.20;;;3.80;99.90;;;;;;2055763;28;20051;-68
2022/12/08 00:03:25;;;;;;;9.73;6.55;;;3.80;99.90;;;;;;2055020;28;20810;-67
2022/12/08 00:04:26;;;;;;;12.77;6.78;;;3.80;99.90;;;;;;2047049;28;20113;-66
2022/12/08 00:09:29;;;;;;;10.90;6.63;;;3.80;99.90;;;;;;2055149;28;20542;-66
2022/12/08 00:10:29;;;;;;;10.23;6.32;;;3.80;99.90;;;;;;2054825;28;20038;-67
2022/12/08 00:11:30;;;;;;;12.80;6.20;;;3.80;99.90;;;;;;2054889;28;20037;-67
2022/12/08 00:12:31;;;;;;;14.13;6.68;;;3.80;99.90;;;;;;2055504;28;20421;-67
2022/12/08 00:13:32;;;;;;;10.30;6.53;;;3.80;99.90;;;;;;2055599;28;20027;-67
2022/12/08 00:14:35;;;;;;;13.10;6.65;;;3.90;99.90;;;;;;2055159;28;20154;-67
2022/12/08 00:15:36;;;;;;;13.40;7.03;;;3.80;99.90;;;;;;2054368;28;20051;-67
2022/12/08 00:16:37;;;;;;;12.60;6.50;;;3.80;99.90;;;;;;2054846;28;20023;-67
2022/12/08 00:17:37;;;;;;;13.57;6.75;;;3.80;99.90;;;;;;2054885;28;20073;-66
2022/12/08 00:18:38;;;;;;;12.80;6.55;;;3.80;99.90;;;;;;2054348;28;20027;-68
2022/12/08 00:19:39;;;;;;;13.73;6.60;;;3.90;99.90;;;;;;2055659;28;20027;-68
2022/12/08 00:20:40;;;;;;;12.70;6.72;;;3.80;99.90;;;;;;2055683;28;20038;-67
2022/12/08 00:21:41;;;;;;;10.77;6.38;;;3.90;99.90;;;;;;2055512;28;20025;-68
2022/12/08 00:22:41;;;;;;;14.18;7.03;;;3.80;99.90;;;;;;2055534;28;20134;-67
2022/12/08 00:23:42;;;;;;;14.63;6.53;;;3.80;99.90;;;;;;2055630;28;20035;-67
2022/12/08 00:24:44;;;;;;;11.45;6.68;;;3.90;99.90;;;;;;2055524;28;20192;-67
2022/12/08 00:25:45;;;;;;;11.77;6.47;;;3.80;99.90;;;;;;2055152;28;20061;-67
2022/12/08 00:26:46;;;;;;;13.32;6.50;;;3.90;99.90;;;;;;2055923;28;20122;-67
2022/12/08 00:27:46;;;;;;;13.98;6.45;;;3.90;99.90;;;;;;2055876;28;20026;-67
2022/12/08 00:28:47;;;;;;;11.95;6.65;;;3.90;99.90;;;;;;2055704;28;20054;-67
2022/12/08 00:29:48;;;;;;;10.45;6.15;;;3.90;99.90;;;;;;2055611;28;20086;-68
2022/12/08 00:30:48;;;;;;;12.07;6.15;;;3.90;99.90;;;;;;2054675;28;20034;-68
2022/12/08 00:31:49;;;;;;;11.07;6.07;;;3.90;99.90;;;;;;2046837;28;20035;-67
2022/12/08 00:32:50;;;;;;;12.30;6.38;;;3.80;99.90;;;;;;2055049;28;20241;-67
2022/12/08 00:33:50;;;;;;;11.40;6.50;;;3.90;99.90;;;;;;2055697;28;20047;-67
2022/12/08 00:34:51;;;;;;;11.55;6.13;;;3.90;99.90;;;;;;2055413;28;20429;-67
2022/12/08 00:35:52;;;;;;;10.55;6.30;;;3.90;99.90;;;;;;2054358;28;20086;-67
2022/12/08 00:36:52;;;;;;;9.88;6.30;;;3.80;99.90;;;;;;2054861;28;20517;-67
2022/12/08 00:37:53;;;;;;;12.20;6.57;;;3.80;99.90;;;;;;2054615;28;20035;-68
2022/12/08 00:38:54;;;;;;;10.95;6.15;;;3.80;99.90;;;;;;2054888;28;20038;-67
2022/12/08 00:39:55;;;;;;;10.65;5.80;;;3.80;99.90;;;;;;2055661;28;20035;-67
2022/12/08 00:40:55;;;;;;;10.77;6.45;;;3.80;99.90;;;;;;2055510;28;20113;-67
2022/12/08 00:42:11;;;;;;;11.52;6.43;;;3.80;99.90;;;;;;2055542;28;20557;-67
2022/12/08 00:43:12;;;;;;;9.15;6.03;;;3.80;99.90;;;;;;2055717;28;20037;-67
2022/12/08 00:44:15;;;;;;;11.07;6.22;;;3.80;99.90;;;;;;2055334;28;20086;-66
2022/12/08 00:45:17;;;;;;;9.43;6.03;;;3.80;99.90;;;;;;2055508;28;20034;-66
2022/12/08 00:46:18;;;;;;;14.50;6.50;;;3.80;99.90;;;;;;2055026;28;20482;-67
2022/12/08 00:47:18;;;;;;;12.00;6.07;;;3.80;99.90;;;;;;2055389;28;20035;-67
2022/12/08 00:48:19;;;;;;;11.38;6.50;;;3.80;99.90;;;;;;2055222;28;20054;-67
2022/12/08 00:49:20;;;;;;;12.95;6.55;;;3.80;99.90;;;;;;2054937;28;20034;-67
2022/12/08 00:50:21;;;;;;;11.88;6.40;;;3.80;99.90;;;;;;2055278;28;20082;-67
2022/12/08 00:51:22;;;;;;;10.63;6.28;;;3.80;99.90;;;;;;2055489;28;20113;-66
2022/12/08 00:52:23;;;;;;;13.43;6.63;;;3.80;99.90;;;;;;2055212;28;20023;-67
2022/12/08 00:53:23;;;;;;;10.45;6.20;;;3.80;99.90;;;;;;2055181;28;20613;-67
2022/12/08 00:54:24;;;;;;;12.55;6.47;;;3.80;99.90;;;;;;2055002;28;20110;-68
2022/12/08 00:55:25;;;;;;;11.25;6.47;;;3.80;99.90;;;;;;2055242;28;20069;-67
2022/12/08 00:56:26;;;;;;;12.20;6.15;;;3.80;99.90;;;;;;2054655;28;20105;-68
2022/12/08 00:57:26;;;;;;;10.23;5.90;;;3.80;99.90;;;;;;2054366;28;20628;-66
2022/12/08 00:58:27;;;;;;;10.32;6.30;;;3.80;99.90;;;;;;2046550;29;20027;-67
2022/12/08 00:59:28;;;;;;;9.77;6.30;;;3.80;99.90;;;;;;2054264;28;20474;-67
2022/12/08 01:00:29;;;;;;;10.43;6.10;;;3.80;99.90;;;;;;2054372;28;20396;-67
2022/12/08 01:01:30;;;;;;;9.40;5.80;;;3.80;99.90;;;;;;2046605;29;20034;-66
2022/12/08 01:02:32;;;;;;;9.85;6.32;;;3.80;99.90;;;;;;2046313;29;20039;-68
2022/12/08 01:03:33;;;;;;;9.52;6.07;;;3.80;99.90;;;;;;2055167;28;20026;-68
2022/12/08 01:04:34;;;;;;;10.43;6.25;;;3.80;99.90;;;;;;2057706;28;20026;-67
2022/12/08 01:05:34;;;;;;;10.05;6.22;;;3.80;99.90;;;;;;2057385;28;20027;-67
2022/12/08 01:06:35;;;;;;;13.10;6.32;;;3.80;99.90;;;;;;2055236;28;20033;-68
2022/12/08 01:07:36;;;;;;;9.85;6.32;;;3.80;99.90;;;;;;2054412;28;20034;-67
2022/12/08 01:08:37;;;;;;;10.45;5.88;;;3.80;99.90;;;;;;2054888;28;20190;-67
2022/12/08 01:09:38;;;;;;;11.93;6.50;;;3.80;99.90;;;;;;2055033;28;20027;-67
2022/12/08 01:10:39;;;;;;;12.88;6.63;;;3.80;99.90;;;;;;2054659;28;20030;-67
2022/12/08 01:11:39;;;;;;;11.82;6.75;;;3.80;99.90;;;;;;2054796;28;20029;-67
2022/12/08 01:12:40;;;;;;;11.23;6.28;;;3.80;99.90;;;;;;2054772;28;20023;-67
2022/12/08 01:13:41;;;;;;;12.13;6.07;;;3.80;99.90;;;;;;2054624;28;20023;-67
2022/12/08 01:14:42;;;;;;;13.15;6.53;;;3.80;99.90;;;;;;2054694;28;20023;-67
2022/12/08 01:15:42;;;;;;;11.63;6.50;;;3.80;99.90;;;;;;2054609;28;20023;-66
2022/12/08 01:16:43;;;;;;;13.05;6.88;;;3.80;99.90;;;;;;2054887;28;20034;-67
2022/12/08 01:17:44;;;;;;;9.20;6.13;;;3.70;99.90;;;;;;2054912;28;20421;-67
2022/12/08 01:18:44;;;;;;;11.10;6.50;;;3.80;99.90;;;;;;2054913;28;20696;-67
2022/12/08 01:19:45;;;;;;;11.15;5.88;;;3.70;99.90;;;;;;2054946;28;20117;-67
2022/12/08 01:20:46;;;;;;;10.93;6.05;;;3.70;99.90;;;;;;2054949;28;20037;-66
2022/12/08 01:21:47;;;;;;;9.60;5.45;;;3.70;99.90;;;;;;2055024;28;20031;-67
2022/12/08 01:22:47;;;;;;;10.13;6.30;;;3.80;99.90;;;;;;2054919;28;20049;-67
2022/12/08 01:23:48;;;;;;;10.80;5.90;;;3.80;99.90;;;;;;2054124;28;20042;-67
2022/12/08 01:24:49;;;;;;;12.45;6.20;;;3.80;99.90;;;;;;2054214;28;20109;-67
2022/12/08 01:25:49;;;;;;;9.15;5.78;;;3.80;99.90;;;;;;2045984;28;20161;-67
2022/12/08 01:26:50;;;;;;;10.27;5.75;;;3.80;99.90;;;;;;2046171;29;20031;-68
2022/12/08 01:27:52;;;;;;;9.52;5.57;;;3.80;99.90;;;;;;2055011;28;20027;-67
2022/12/08 01:28:53;;;;;;;9.98;5.78;;;3.80;99.90;;;;;;2054121;28;20030;-68
2022/12/08 01:29:53;;;;;;;9.40;5.68;;;3.80;99.90;;;;;;2054029;28;20617;-68
2022/12/08 01:30:54;;;;;;;9.18;5.85;;;3.70;99.90;;;;;;2054026;28;20038;-67
2022/12/08 01:31:55;;;;;;;10.93;6.70;;;3.80;99.90;;;;;;2054977;28;20026;-67
2022/12/08 01:32:56;;;;;;;9.50;6.35;;;3.70;99.90;;;;;;2054852;28;20033;-67
2022/12/08 01:33:57;;;;;;;9.73;6.43;;;3.70;99.90;;;;;;2054688;28;20031;-68
2022/12/08 01:34:58;;;;;;;9.77;6.28;;;3.70;99.90;;;;;;2053951;28;20022;-68
2022/12/08 01:36:04;;;;;;;8.77;6.18;;;3.70;99.90;;;;;;2053756;28;20542;-67
2022/12/08 01:37:04;;;;;;;13.05;6.30;;;3.70;99.90;;;;;;2054097;28;20031;-67
2022/12/08 01:38:05;;;;;;;10.60;6.55;;;3.60;99.90;;;;;;2054207;28;20073;-67
2022/12/08 01:39:09;;;;;;;10.15;5.85;;;3.60;99.90;;;;;;2054765;28;20046;-67
2022/12/08 01:40:10;;;;;;;9.65;6.05;;;3.60;99.90;;;;;;2054659;28;20042;-67
2022/12/08 01:41:16;;;;;;;9.35;6.25;;;3.60;99.90;;;;;;2054105;28;20531;-67
2022/12/08 01:42:21;;;;;;;11.82;6.32;;;3.60;99.90;;;;;;2054095;28;20054;-68
2022/12/08 01:43:22;;;;;;;10.05;6.10;;;3.60;99.90;;;;;;2054074;28;20046;-68
2022/12/08 01:44:23;;;;;;;8.70;6.03;;;3.50;99.90;;;;;;2053789;28;20098;-67
2022/12/08 01:45:25;;;;;;;;;;;3.50;99.90;;;;;;2016466;28;1133196;-68
2022/12/08 01:46:27;;;;;;;10.00;6.20;;;3.50;99.90;;;;;;2054753;28;19997;-67
2022/12/08 01:47:37;;;;;;;12.25;6.43;;;3.50;99.90;;;;;;2055078;28;20090;-70
2022/12/08 01:48:37;;;;;;;9.45;6.25;;;3.50;99.90;;;;;;2055087;28;20034;-68
2022/12/08 01:49:38;;;;;;;10.38;6.28;;;3.50;99.90;;;;;;2055207;28;20030;-68
2022/12/08 01:50:40;;;;;;;8.65;6.10;;;3.50;99.90;;;;;;2055124;28;20095;-68
2022/12/08 01:52:03;;;;;;;10.00;6.32;;;3.40;99.90;;;;;;2055198;28;20767;-67
2022/12/08 01:53:15;;;;;;;9.38;6.20;;;3.40;99.90;;;;;;2054347;28;20031;-67
2022/12/08 01:54:16;;;;;;;8.45;5.72;;;3.40;99.90;;;;;;2054518;28;20023;-68
2022/12/08 01:55:30;;;;;;;11.52;6.05;;;3.40;99.90;;;;;;2054933;28;20015;-68
2022/12/08 01:56:40;;;;;;;10.30;6.65;;;3.40;99.90;;;;;;2054274;28;20046;-68
2022/12/08 01:57:48;;;;;;;9.85;6.20;;;3.40;99.90;;;;;;2055172;28;20031;-68
2022/12/08 01:58:53;;;;;;;10.93;7.15;;;3.30;99.90;;;;;;2047589;28;20035;-68
2022/12/08 02:00:00;;;;;;;12.75;7.30;;;3.30;99.90;;;;;;2048298;28;20031;-68
2022/12/08 02:01:01;;;;;;;13.43;7.60;;;3.30;99.90;;;;;;2055530;28;20037;-68
2022/12/08 02:02:02;;;;;;;13.20;7.38;;;3.20;99.90;;;;;;2055653;28;20019;-68
2022/12/08 02:03:08;;;;;;;13.25;7.93;;;3.20;99.90;;;;;;2055705;28;20030;-68
2022/12/08 02:04:09;;;;;;;13.38;8.27;;;3.20;99.90;;;;;;2055381;28;20035;-68
2022/12/08 02:05:10;;;;;;;12.65;7.22;;;3.20;99.90;;;;;;2055142;28;20565;-68
2022/12/08 02:06:11;;;;;;;14.85;7.55;;;3.20;99.90;;;;;;2054720;28;20090;-68
2022/12/08 02:07:13;;;;;;;11.85;7.00;;;3.20;99.90;;;;;;2054099;28;20169;-68
2022/12/08 02:08:15;;;;;;;11.18;7.30;;;3.10;99.90;;;;;;2054456;28;20018;-69
2022/12/08 02:09:16;;;;;;;10.02;6.75;;;3.10;99.90;;;;;;2054811;28;20023;-68
2022/12/08 02:10:19;;;;;;;13.20;7.55;;;3.10;99.90;;;;;;2055185;28;20367;-67
2022/12/08 02:11:20;;;;;;;13.32;7.68;;;3.10;99.90;;;;;;2054871;28;20018;-67
2022/12/08 02:12:21;;;;;;;12.65;7.90;;;3.10;99.90;;;;;;2055211;28;20030;-67
2022/12/08 02:13:23;;;;;;;13.98;7.80;;;3.10;99.90;;;;;;2054379;28;20493;-68
2022/12/08 02:14:24;;;;;;;14.90;8.30;;;3.10;99.90;;;;;;2054096;28;20539;-68
2022/12/08 02:16:00;;;;;;;12.25;7.95;;;3.10;99.90;;;;;;2046294;28;20031;-68
2022/12/08 02:17:19;;;;;;;12.30;8.18;;;3.10;99.90;;;;;;2050808;28;20121;-68
2022/12/08 02:18:47;;;;;;;10.90;7.07;;;3.10;99.90;;;;;;2048673;28;20541;-68
2022/12/08 02:20:41;;;;;;;11.82;7.53;;;3.10;99.90;;;;;;2054117;28;20034;-68
2022/12/08 02:22:03;;;;;;;10.75;7.20;;;3.10;99.90;;;;;;2045678;29;20509;-68
2022/12/08 02:23:27;;;;;;;13.05;7.55;;;3.00;99.90;;;;;;2054778;28;20035;-68
2022/12/08 02:24:53;;;;;;;13.73;7.60;;;3.00;99.90;;;;;;2054158;28;20084;-68
2022/12/08 02:26:26;;;;;;;13.75;8.30;;;3.00;99.90;;;;;;2054440;28;20030;-68
2022/12/08 02:27:41;;;;;;;11.68;7.03;;;2.90;99.90;;;;;;2047121;28;20514;-67
2022/12/08 02:29:01;;;;;;;10.57;7.30;;;2.90;99.90;;;;;;2054463;28;20061;-68
2022/12/08 02:30:11;;;;;;;10.38;7.15;;;2.90;99.90;;;;;;2054968;28;20056;-67
2022/12/08 02:31:20;;;;;;;12.35;7.90;;;2.80;99.90;;;;;;2055162;28;20033;-67
2022/12/08 02:32:31;;;;;;;11.43;7.78;;;2.80;99.90;;;;;;2055207;28;20405;-66
2022/12/08 02:33:40;;;;;;;15.23;9.70;;;2.80;99.90;;;;;;2054987;28;20022;-67
2022/12/08 02:35:11;;;;;;;14.60;9.27;;;2.70;99.90;;;;;;2054403;28;20038;-67
2022/12/08 02:36:14;;;;;;;15.68;9.77;;;2.70;99.90;;;;;;2054377;28;20870;-68
2022/12/08 02:37:35;;;;;;;15.38;9.40;;;2.80;99.90;;;;;;2054226;28;20058;-68
2022/12/08 02:38:46;;;;;;;15.90;9.65;;;2.80;99.90;;;;;;2054609;28;20543;-67
2022/12/08 02:39:53;;;;;;;15.35;9.35;;;2.80;99.90;;;;;;2054993;28;20030;-68
2022/12/08 02:41:12;;;;;;;15.20;9.40;;;2.80;99.90;;;;;;2054891;28;20084;-67
2022/12/08 02:42:24;;;;;;;16.38;9.93;;;2.80;99.90;;;;;;2055762;28;20117;-67
2022/12/08 02:43:40;;;;;;;15.98;9.20;;;2.80;99.90;;;;;;2056364;28;20049;-68
2022/12/08 02:44:51;;;;;;;15.30;9.30;;;2.80;99.90;;;;;;2055454;28;20034;-68
2022/12/08 02:45:59;;;;;;;16.08;9.23;;;2.80;99.90;;;;;;2055635;28;20023;-68
2022/12/08 02:47:22;;;;;;;13.25;9.15;;;2.90;99.90;;;;;;2056447;28;20039;-67
2022/12/08 02:48:24;;;;;;;13.73;8.70;;;2.90;99.90;;;;;;2056053;28;20099;-67
2022/12/08 02:49:31;;;;;;;13.50;8.85;;;2.90;99.90;;;;;;2056149;28;20649;-68
2022/12/08 02:50:32;;;;;;;13.45;8.73;;;3.00;99.90;;;;;;2056185;28;20548;-68
2022/12/08 02:51:32;;;;;;;12.10;8.63;;;3.00;99.90;;;;;;2056263;28;20019;-68
2022/12/08 02:52:33;;;;;;;14.13;8.73;;;3.00;99.90;;;;;;2056139;28;20741;-67
2022/12/08 02:53:35;;;;;;;14.88;9.05;;;3.10;99.90;;;;;;2056190;28;20031;-69
2022/12/08 02:54:38;;;;;;;14.90;9.90;;;3.10;99.90;;;;;;2056374;28;20086;-68
2022/12/08 02:55:50;;;;;;;17.65;10.80;;;3.10;99.90;;;;;;2060547;28;20104;-66
2022/12/08 02:57:10;;;;;;;18.00;10.70;;;3.10;99.90;;;;;;2056292;28;20038;-67
2022/12/08 02:58:19;;;;;;;14.48;9.82;;;3.20;99.90;;;;;;2056241;28;20038;-67
2022/12/08 03:00:10;;;;;;;14.10;9.48;;;3.20;99.90;;;;;;2056192;28;20035;-67
2022/12/08 03:01:35;;;;;;;14.48;9.52;;;3.20;99.90;;;;;;2059477;28;20049;-67
2022/12/08 03:02:42;;;;;;;14.45;9.45;;;3.20;99.90;;;;;;2055265;28;20050;-68
2022/12/08 03:03:52;;;;;;;12.82;9.20;;;3.20;99.90;;;;;;2048059;28;20028;-68
2022/12/08 03:05:10;;;;;;;13.60;9.13;;;3.30;99.90;;;;;;2048739;28;20058;-68
2022/12/08 03:06:24;;;;;;;15.98;9.38;;;3.20;99.90;;;;;;2055607;28;20039;-67
2022/12/08 03:07:34;;;;;;;14.20;8.90;;;3.20;99.90;;;;;;2055560;28;20035;-67
2022/12/08 03:09:02;;;;;;;15.32;10.57;;;3.30;99.90;;;;;;2055715;28;20023;-67
2022/12/08 03:10:28;;;;;;;15.77;10.07;;;3.30;99.90;;;;;;2048255;28;20106;-67
2022/12/08 03:11:54;;;;;;;16.45;10.38;;;3.30;99.90;;;;;;2048212;29;20662;-67
2022/12/08 03:13:00;;;;;;;15.70;10.00;;;3.30;99.90;;;;;;2047497;28;20099;-67
2022/12/08 03:14:03;;;;;;;16.55;10.30;;;3.30;99.90;;;;;;2047405;29;20642;-68
2022/12/08 03:15:13;;;;;;;15.60;10.48;;;3.30;99.90;;;;;;2039475;29;20036;-68
2022/12/08 03:16:17;;;;;;;16.05;9.73;;;3.30;99.90;;;;;;2040685;29;20095;-68
2022/12/08 03:17:21;;;;;;;16.70;10.10;;;3.30;99.90;;;;;;2048089;28;20046;-68
2022/12/08 03:18:26;;;;;;;13.80;9.38;;;3.30;99.90;;;;;;2048168;29;20075;-68
2022/12/08 03:19:34;;;;;;;16.73;9.98;;;3.30;99.90;;;;;;2048176;29;20059;-68
2022/12/08 03:20:37;;;;;;;15.38;9.90;;;3.40;99.90;;;;;;2039606;29;20178;-68
2022/12/08 03:21:39;;;;;;;17.05;10.70;;;3.40;99.90;;;;;;2032441;29;20111;-68
2022/12/08 03:22:41;;;;;;;15.13;10.43;;;3.40;99.90;;;;;;2047619;28;20148;-68
2022/12/08 03:23:45;;;;;;;15.18;9.70;;;3.40;99.90;;;;;;2048383;29;20034;-68
2022/12/08 03:24:47;;;;;;;17.17;10.23;;;3.40;99.90;;;;;;2048317;28;20114;-68
2022/12/08 03:26:04;;;;;;;14.98;9.85;;;3.40;99.90;;;;;;2047723;29;20058;-68
2022/12/08 03:27:09;;;;;;;14.82;9.98;;;3.40;99.90;;;;;;2048252;29;20024;-68
2022/12/08 03:28:11;;;;;;;15.85;9.73;;;3.40;99.90;;;;;;2048265;28;20027;-68
2022/12/08 03:29:12;;;;;;;13.98;9.60;;;3.40;99.90;;;;;;2050053;28;20050;-68
2022/12/08 03:30:13;;;;;;;14.80;10.15;;;3.40;99.90;;;;;;2064160;28;20022;-68
2022/12/08 03:31:16;;;;;;;13.90;9.45;;;3.50;99.90;;;;;;2064246;28;20026;-68
2022/12/08 03:32:34;;;;;;;11.43;8.50;;;3.50;99.90;;;;;;2064111;28;20051;-68
2022/12/08 03:33:42;;;;;;;12.52;8.77;;;3.50;99.90;;;;;;2064158;28;20113;-68
2022/12/08 03:34:45;;;;;;;12.80;9.07;;;3.50;99.90;;;;;;2063329;28;20027;-68
2022/12/08 03:35:47;;;;;;;12.13;8.90;;;3.50;99.90;;;;;;2063095;28;20135;-68
2022/12/08 03:36:48;;;;;;;14.65;9.07;;;3.50;99.90;;;;;;2064072;28;20489;-67
2022/12/08 03:37:49;;;;;;;14.52;9.30;;;3.50;99.90;;;;;;2063999;28;20057;-68
2022/12/08 03:38:52;;;;;;;14.43;9.45;;;3.50;99.90;;;;;;2064170;28;20555;-68
2022/12/08 03:39:52;;;;;;;13.98;9.57;;;3.50;99.90;;;;;;2063330;28;20453;-68
2022/12/08 03:42:12;;;;;;;15.43;8.98;;;3.40;99.90;;;;;;2064282;28;20182;-67
2022/12/08 03:43:13;;;;;;;13.60;9.30;;;3.40;99.90;;;;;;2063622;28;20151;-68
2022/12/08 03:44:14;;;;;;;13.52;8.93;;;3.40;99.90;;;;;;2059721;28;20118;-68
2022/12/08 03:45:14;;;;;;;13.98;9.60;;;3.40;99.90;;;;;;2051197;28;20037;-68
2022/12/08 03:46:16;;;;;;;13.85;9.82;;;3.40;99.90;;;;;;2055738;28;20027;-68
2022/12/08 03:47:17;;;;;;;13.93;9.55;;;3.40;99.90;;;;;;2056263;28;20023;-68
2022/12/08 03:48:17;;;;;;;13.90;9.32;;;3.40;99.90;;;;;;2055952;28;20489;-68
2022/12/08 03:49:18;;;;;;;15.40;10.05;;;3.50;99.90;;;;;;2055831;28;20762;-67
2022/12/08 03:50:19;;;;;;;14.05;9.52;;;3.50;99.90;;;;;;2067455;28;20610;-68
2022/12/08 03:51:20;;;;;;;12.95;8.60;;;3.50;99.90;;;;;;2067122;28;20098;-68
2022/12/08 03:52:20;;;;;;;12.20;9.07;;;3.40;99.90;;;;;;2051996;28;20023;-68
2022/12/08 03:53:21;;;;;;;15.43;9.15;;;3.50;99.90;;;;;;2055090;28;20540;-68
2022/12/08 03:54:23;;;;;;;12.48;9.38;;;3.50;99.90;;;;;;2055306;28;20487;-68
2022/12/08 03:55:23;;;;;;;14.20;9.90;;;3.50;99.90;;;;;;2055842;28;20027;-68
2022/12/08 03:56:28;;;;;;;15.68;10.35;;;3.50;99.90;;;;;;2054962;28;20050;-68
2022/12/08 03:57:28;;;;;;;13.93;9.65;;;3.50;99.90;;;;;;2055209;28;20694;-68
2022/12/08 03:58:29;;;;;;;15.07;10.02;;;3.50;99.90;;;;;;2055876;28;20023;-67
2022/12/08 03:59:30;;;;;;;15.02;9.73;;;3.50;99.90;;;;;;2055448;28;20031;-68
2022/12/08 04:00:31;;;;;;;14.93;10.05;;;3.50;99.90;;;;;;2055799;28;20689;-67
2022/12/08 04:01:32;;;;;;;15.43;9.75;;;3.50;99.90;;;;;;2055688;28;20031;-68
2022/12/08 04:02:32;;;;;;;14.63;8.98;;;3.50;99.90;;;;;;2055907;28;20081;-68
2022/12/08 04:03:33;;;;;;;16.05;9.80;;;3.60;99.90;;;;;;2055328;28;20023;-67
2022/12/08 04:04:34;;;;;;;13.57;9.70;;;3.50;99.90;;;;;;2055988;28;20054;-68
2022/12/08 04:05:34;;;;;;;15.30;9.75;;;3.50;99.90;;;;;;2056234;28;20027;-67
2022/12/08 04:06:35;;;;;;;16.60;10.57;;;3.50;99.90;;;;;;2055870;28;20022;-67
2022/12/08 04:07:36;;;;;;;15.38;10.50;;;3.50;99.90;;;;;;2056243;28;20114;-68
2022/12/08 04:08:36;;;;;;;15.02;10.20;;;3.50;99.90;;;;;;2055656;28;20034;-68
2022/12/08 04:09:37;;;;;;;14.18;9.73;;;3.50;99.90;;;;;;2062912;28;20539;-68
2022/12/08 04:10:38;;;;;;;13.68;10.05;;;3.50;99.90;;;;;;2063192;28;20034;-67
2022/12/08 04:11:39;;;;;;;16.02;10.65;;;3.50;99.90;;;;;;2055301;28;20039;-68
2022/12/08 04:12:39;;;;;;;18.60;10.50;;;3.60;99.90;;;;;;2055167;28;20106;-68
2022/12/08 04:13:41;;;;;;;15.10;10.43;;;3.50;99.90;;;;;;2055895;28;20030;-67
2022/12/08 04:14:42;;;;;;;14.75;10.20;;;3.50;99.90;;;;;;2055608;28;20041;-68
2022/12/08 04:15:46;;;;;;;14.30;10.13;;;3.50;99.90;;;;;;2055544;28;20023;-68
2022/12/08 04:16:47;;;;;;;15.45;9.85;;;3.50;99.90;;;;;;2063209;28;20045;-68
2022/12/08 04:17:48;;;;;;;15.70;10.35;;;3.50;99.90;;;;;;2063003;28;20026;-67
2022/12/08 04:18:48;;;;;;;14.60;10.38;;;3.50;99.90;;;;;;2055656;28;20389;-68
2022/12/08 04:19:49;;;;;;;15.18;10.38;;;3.60;99.90;;;;;;2055747;28;20027;-68
2022/12/08 04:20:50;;;;;;;15.13;10.18;;;3.60;99.90;;;;;;2062914;28;20034;-67
2022/12/08 04:21:50;;;;;;;15.50;10.43;;;3.60;99.90;;;;;;2062942;28;20531;-68
2022/12/08 04:22:51;;;;;;;15.38;10.05;;;3.50;99.90;;;;;;2055464;28;20089;-67
2022/12/08 04:23:52;;;;;;;14.88;10.23;;;3.60;99.90;;;;;;2062922;28;20018;-68
2022/12/08 04:24:52;;;;;;;15.75;10.52;;;3.60;99.90;;;;;;2062923;28;20033;-68
2022/12/08 04:25:53;;;;;;;17.70;10.60;;;3.60;99.90;;;;;;2055158;28;20098;-67
2022/12/08 04:26:54;;;;;;;15.27;10.10;;;3.60;99.90;;;;;;2055546;28;20501;-68
2022/12/08 04:27:55;;;;;;;14.65;10.90;;;3.60;99.90;;;;;;2055506;28;20118;-67
2022/12/08 04:28:55;;;;;;;15.55;10.35;;;3.60;99.90;;;;;;2055437;28;20483;-68
2022/12/08 04:29:56;;;;;;;14.80;10.23;;;3.60;99.90;;;;;;2054585;28;20018;-68
2022/12/08 04:30:57;;;;;;;16.25;9.50;;;3.60;99.90;;;;;;2054741;28;20027;-68
2022/12/08 04:31:57;;;;;;;13.02;9.48;;;3.60;99.90;;;;;;2054806;28;20022;-68
2022/12/08 04:32:58;;;;;;;13.60;9.73;;;3.60;99.90;;;;;;2054928;28;20040;-68
2022/12/08 04:33:59;;;;;;;14.88;10.52;;;3.60;99.90;;;;;;2054896;28;20030;-68
2022/12/08 04:35:00;;;;;;;13.75;10.20;;;3.60;99.90;;;;;;2054831;28;20026;-68
2022/12/08 04:36:05;;;;;;;16.52;10.30;;;3.60;99.90;;;;;;2055149;28;20034;-68
2022/12/08 04:37:06;;;;;;;14.70;10.20;;;3.60;99.90;;;;;;2055633;28;20061;-69
2022/12/08 04:38:06;;;;;;;15.85;10.68;;;3.60;99.90;;;;;;2055364;28;20032;-68
2022/12/08 04:39:07;;;;;;;15.82;10.30;;;3.60;99.90;;;;;;2054607;28;20097;-68
2022/12/08 04:40:08;;;;;;;16.52;10.40;;;3.60;99.90;;;;;;2054776;28;20034;-68
2022/12/08 04:41:09;;;;;;;14.70;10.38;;;3.60;99.90;;;;;;2055340;28;20042;-68
2022/12/08 04:42:09;;;;;;;13.93;9.70;;;3.60;99.90;;;;;;2055466;28;20026;-67
2022/12/08 04:43:10;;;;;;;16.38;10.77;;;3.60;99.90;;;;;;2054655;28;20060;-68
2022/12/08 04:44:11;;;;;;;13.07;9.68;;;3.60;99.90;;;;;;2054359;28;20746;-68
2022/12/08 04:45:12;;;;;;;15.32;9.98;;;3.60;99.90;;;;;;2052343;28;20473;-68
2022/12/08 04:46:12;;;;;;;15.98;10.43;;;3.60;99.90;;;;;;2055201;28;20027;-67
2022/12/08 04:47:13;;;;;;;14.27;9.98;;;3.60;99.90;;;;;;2055437;28;20114;-67
2022/12/08 04:48:14;;;;;;;13.85;9.82;;;3.60;99.90;;;;;;2057345;28;20085;-68
2022/12/08 04:49:15;;;;;;;14.02;9.60;;;3.60;99.90;;;;;;2055324;28;20019;-67
2022/12/08 04:50:15;;;;;;;15.18;9.60;;;3.60;99.90;;;;;;2054925;28;20134;-67
2022/12/08 04:51:18;;;;;;;13.65;9.40;;;3.60;99.90;;;;;;2055225;28;20085;-68
2022/12/08 04:52:18;;;;;;;13.40;9.13;;;3.60;99.90;;;;;;2055522;28;20128;-68
2022/12/08 04:53:20;;;;;;;12.73;8.95;;;3.60;99.90;;;;;;2055550;28;20489;-68
2022/12/08 04:54:20;;;;;;;13.00;9.30;;;3.70;99.90;;;;;;2055217;28;20079;-68
2022/12/08 04:55:21;;;;;;;13.60;9.45;;;3.60;99.90;;;;;;2055622;28;20169;-68
2022/12/08 04:56:22;;;;;;;13.25;9.38;;;3.70;99.90;;;;;;2055829;28;20113;-68
2022/12/08 04:57:23;;;;;;;13.80;9.20;;;3.70;99.90;;;;;;2055104;28;20026;-68
2022/12/08 04:58:23;;;;;;;15.13;9.02;;;3.60;99.90;;;;;;2055564;28;20027;-68
2022/12/08 04:59:24;;;;;;;14.73;10.27;;;3.60;99.90;;;;;;2055260;28;20035;-68
2022/12/08 05:00:25;;;;;;;13.77;9.77;;;3.60;99.90;;;;;;2054336;28;20037;-68
2022/12/08 05:01:25;;;;;;;17.10;10.30;;;3.60;99.90;;;;;;2054654;28;20187;-68
2022/12/08 05:02:26;;;;;;;13.20;9.73;;;3.70;99.90;;;;;;2055450;28;20066;-68
2022/12/08 05:03:27;;;;;;;13.77;9.98;;;3.70;99.90;;;;;;2055314;28;20038;-68
2022/12/08 05:04:27;;;;;;;15.57;9.68;;;3.60;99.90;;;;;;2055243;28;20026;-68
2022/12/08 05:05:28;;;;;;;15.60;10.10;;;3.60;99.90;;;;;;2055303;28;20537;-68
2022/12/08 05:06:29;;;;;;;13.23;9.40;;;3.70;99.90;;;;;;2054578;28;20019;-68
2022/12/08 05:07:29;;;;;;;16.20;9.60;;;3.60;99.90;;;;;;2054851;28;20023;-68
2022/12/08 05:08:31;;;;;;;15.35;9.77;;;3.70;99.90;;;;;;2055479;28;20035;-67
2022/12/08 05:09:32;;;;;;;12.70;9.10;;;3.70;99.90;;;;;;2055569;28;20019;-67
2022/12/08 05:10:33;;;;;;;12.60;9.35;;;3.80;99.90;;;;;;2055350;28;20648;-67
2022/12/08 05:11:34;;;;;;;14.35;9.10;;;3.80;99.90;;;;;;2055247;28;20031;-67
2022/12/08 05:12:34;;;;;;;12.05;8.98;;;3.80;99.90;;;;;;2055310;28;20031;-67
2022/12/08 05:13:35;;;;;;;12.82;9.18;;;3.80;99.90;;;;;;2054509;28;20030;-67
2022/12/08 05:14:36;;;;;;;13.30;8.98;;;3.80;99.90;;;;;;2054423;28;20126;-68
2022/12/08 05:15:36;;;;;;;11.38;9.05;;;3.80;99.90;;;;;;2054528;28;20031;-67
2022/12/08 05:16:37;;;;;;;12.75;9.10;;;3.80;99.90;;;;;;2055282;28;20142;-67
2022/12/08 05:17:38;;;;;;;11.82;8.85;;;3.80;99.90;;;;;;2054580;28;20050;-67
2022/12/08 05:18:40;;;;;;;12.27;9.15;;;3.80;99.90;;;;;;2054715;28;20027;-68
2022/12/08 05:19:41;;;;;;;14.02;9.25;;;3.80;99.90;;;;;;2055802;28;20121;-68
2022/12/08 05:20:42;;;;;;;12.82;8.88;;;3.80;99.90;;;;;;2056418;28;20054;-67
2022/12/08 05:21:42;;;;;;;13.10;8.70;;;3.80;99.90;;;;;;2055218;28;20489;-67
2022/12/08 05:22:43;;;;;;;11.07;8.60;;;3.80;99.90;;;;;;2054867;28;20054;-67
2022/12/08 05:23:44;;;;;;;12.90;9.07;;;3.80;99.90;;;;;;2055186;28;20070;-68
2022/12/08 05:24:44;;;;;;;13.73;9.20;;;3.80;99.90;;;;;;2055145;28;20049;-68
2022/12/08 05:25:45;;;;;;;12.50;9.02;;;3.80;99.90;;;;;;2054897;28;20038;-69
2022/12/08 05:26:46;;;;;;;13.38;9.57;;;3.80;99.90;;;;;;2055509;28;20026;-68
2022/12/08 05:27:47;;;;;;;13.98;9.93;;;3.70;99.90;;;;;;2055123;28;20026;-67
2022/12/08 05:28:48;;;;;;;13.82;10.13;;;3.70;99.90;;;;;;2055191;28;20031;-67
2022/12/08 05:29:49;;;;;;;14.52;10.20;;;3.70;99.90;;;;;;2055290;28;20050;-67
2022/12/08 05:30:50;;;;;;;14.82;10.23;;;3.70;99.90;;;;;;2055248;28;20026;-69
2022/12/08 05:31:50;;;;;;;15.85;10.57;;;3.70;99.90;;;;;;2055126;28;20035;-68
2022/12/08 05:32:51;;;;;;;15.13;10.80;;;3.70;99.90;;;;;;2055089;28;20054;-67
2022/12/08 05:33:55;;;;;;;17.17;11.30;;;3.70;99.90;;;;;;2055142;28;20055;-66
2022/12/08 05:34:55;;;;;;;15.68;10.73;;;3.60;99.90;;;;;;2054383;28;20043;-67
2022/12/08 05:35:56;;;;;;;14.65;10.43;;;3.60;99.90;;;;;;2054229;28;20031;-68
2022/12/08 05:36:57;;;;;;;15.15;10.30;;;3.60;99.90;;;;;;2055177;28;20023;-66